Dighton, MA (02715)

8:46 AM EDT on March 26, 2017 (GMT -0400)
Richmond Hill | | Change Station

Elev 140 ft 41.81 °N, 71.13 °W | Updated 10 minutes ago

Clear
Clear
33.7 °F
Feels Like 34 °F
N
1.0
Wind Variable Wind from ENE

Today
High -- | Low -- °F
--% Chance of Precip.
Yesterday
High -- | Low -- °F
Precip. -- in
Pressure 30.51 in
Visibility 5.0 miles
Clouds Clear
Windchill 34 °F
Dew Point 30 °F
Humidity 85%
Rainfall 0.00 in
Snow Depth Not available.
6:37 AM 7:03 PM
Waning Crescent, 3% visible
METAR KTAN 261152Z AUTO 00000KT 5SM BR CLR M02/M03 A3050 RMK AO2 SLP329 70001 I1001 I6002 T10221033 11022 21067 53015
Pressure 30.51 in
Visibility 5.0 miles
Clouds Clear
Windchill 34 °F
Dew Point 30 °F
Humidity 85%
Rainfall 0.00 in
Snow Depth Not available.
6:37 AM 7:03 PM
Waning Crescent, 3% visible
METAR KTAN 261152Z AUTO 00000KT 5SM BR CLR M02/M03 A3050 RMK AO2 SLP329 70001 I1001 I6002 T10221033 11022 21067 53015

Get Severe Weather Alerts

Thanks for signing up!

Be on the lookout for a verification email in your inbox.

You'll start receiving the daily forecast at 8 AM.

×

10-Day Weather Forecast

Almanac

Astronomy

Mar. 26, 2017 Rise Set
Actual Time
Civil Twilight
Nautical Twilight
Astronomical Twilight
Moon
Length of Visible Light
Length of Day
Tomorrow will be .
, % of the Moon is Illuminated

Today's Extremes

State Highs State Lows

Community

WunderPhotos

Upload Photos

1,962,540 photos uploaded!

WunderBlog® & News

Nearby

Air Quality

  Air Quality AQ Index Pollutant
Not available.

Snow Depth

Station Depth Elevation

Earthquake Activity

City Distance Mag. Time & Date
Minimum magnitude displayed is 2.5.

Earthquake Activity

City Distance Mag. Time & Date
Minimum magnitude displayed is 2.5.

Coastal Water Temperatures

Place Temperature

Stations

Nearby Weather Stations

Station Location Temp. Windchill Dew Point Humidity Wind Precip. Elev Updated Type
                   

Watches & Warnings

There are currently no watches in effect.